Venture — WDC2604 — position and weather

sailwx.info

Track history (hours):
 
Tides and Currents Weather Stations Pressure Air Temp Water Temp Dewpoint Dewpoint Depression Visibility Wind Speed Wind Dir Waves Ship Positions

Venture

Owner: Kirby Inland Marine, LP, Houston, TX. More information available from US FCC via Universal Licensing System and Coast Guard Vessel Documentation Center.

Last reported at 2017-Oct-13 11:25 UTC. Time now 2017-Nov-21 15:45 UTC.
Position N 30°04' W 093°27'.
Warning: this ship's position is 39 days out of date.

Length 25 m.

Type: Towing. MMSI: 365946914.

Date/timePositionNaut miles runAvg speedWind from/ knotsBaromVisibWave heightAir tempDewpointWater temp
2017-Oct-13 11:25N 30°04' W 093°27'2 5.1
2017-Oct-13 11:00N 30°04' W 093°25'2 4.4
2017-Oct-13 10:30N 30°04' W 093°22'2 3.3
2017-Oct-13 10:00N 30°04' W 093°21'1 2.9
2017-Oct-13 09:30N 30°05' W 093°19'1 2.4
2017-Oct-13 09:00N 30°06' W 093°18'1 1.6
2017-Oct-13 08:30N 30°05' W 093°17'2 3.1
2017-Oct-13 08:00N 30°04' W 093°16'2 3.2
2017-Oct-13 07:30N 30°02' W 093°16'2 3.8
2017-Oct-13 07:00N 30°01' W 093°14'2 3.5
2017-Oct-13 06:30N 29°60' W 093°13'51 3.8
2017-Oct-12 17:10N 29°48' W 092°16'0 1.8
2017-Oct-12 17:00N 29°48' W 092°16'2 4.2
2017-Oct-12 16:30N 29°48' W 092°13'1 2.1
2017-Oct-12 16:00N 29°47' W 092°12'1 1.1
2017-Oct-12 15:30N 29°47' W 092°12'0 0.6
2017-Oct-12 15:00N 29°47' W 092°11'0 0.9
2017-Oct-12 14:30N 29°47' W 092°11'0 0.0
2017-Oct-12 14:00N 29°47' W 092°11'0 0.0
2017-Oct-12 13:30N 29°47' W 092°11'0 0.0
2017-Oct-12 13:00N 29°47' W 092°11'0 0.0
2017-Oct-12 12:30N 29°47' W 092°11'0 0.0
2017-Oct-12 12:00N 29°47' W 092°11'0 0.1
2017-Oct-12 11:31N 29°47' W 092°11'0 0.5
2017-Oct-12 11:00N 29°47' W 092°11'2 4.4
2017-Oct-12 10:31N 29°47' W 092°08'2 4.3
2017-Oct-12 10:00N 29°48' W 092°06'71 4.2
2017-Oct-11 17:09N 29°32' W 090°46'1 4.2
2017-Oct-11 17:00N 29°33' W 090°45'  
Track history (hours):
 
Tides and Currents Weather Stations Pressure Air Temp Water Temp Dewpoint Dewpoint Depression Visibility Wind Speed Wind Dir Waves Ship Positions

Venture

Owner: Kirby Inland Marine, LP, Houston, TX. More information available from US FCC via Universal Licensing System and Coast Guard Vessel Documentation Center.

Last reported at 2017-Oct-13 11:25 UTC. Time now 2017-Nov-21 15:45 UTC.
Position N 30°04' W 093°27'.
Warning: this ship's position is 39 days out of date.

Length 25 m.

Type: Towing. MMSI: 365946914.

Date/timePositionNaut miles runAvg speedWind from/ knotsBaromVisibWave heightAir tempDewpointWater temp
2017-Oct-13 11:25N 30°04' W 093°27'2 5.1
2017-Oct-13 11:00N 30°04' W 093°25'2 4.4
2017-Oct-13 10:30N 30°04' W 093°22'2 3.3
2017-Oct-13 10:00N 30°04' W 093°21'1 2.9
2017-Oct-13 09:30N 30°05' W 093°19'1 2.4
2017-Oct-13 09:00N 30°06' W 093°18'1 1.6
2017-Oct-13 08:30N 30°05' W 093°17'2 3.1
2017-Oct-13 08:00N 30°04' W 093°16'2 3.2
2017-Oct-13 07:30N 30°02' W 093°16'2 3.8
2017-Oct-13 07:00N 30°01' W 093°14'2 3.5
2017-Oct-13 06:30N 29°60' W 093°13'51 3.8
2017-Oct-12 17:10N 29°48' W 092°16'0 1.8
2017-Oct-12 17:00N 29°48' W 092°16'2 4.2
2017-Oct-12 16:30N 29°48' W 092°13'1 2.1
2017-Oct-12 16:00N 29°47' W 092°12'1 1.1
2017-Oct-12 15:30N 29°47' W 092°12'0 0.6
2017-Oct-12 15:00N 29°47' W 092°11'0 0.9
2017-Oct-12 14:30N 29°47' W 092°11'0 0.0
2017-Oct-12 14:00N 29°47' W 092°11'0 0.0
2017-Oct-12 13:30N 29°47' W 092°11'0 0.0
2017-Oct-12 13:00N 29°47' W 092°11'0 0.0
2017-Oct-12 12:30N 29°47' W 092°11'0 0.0
2017-Oct-12 12:00N 29°47' W 092°11'0 0.1
2017-Oct-12 11:31N 29°47' W 092°11'0 0.5
2017-Oct-12 11:00N 29°47' W 092°11'2 4.4
2017-Oct-12 10:31N 29°47' W 092°08'2 4.3
2017-Oct-12 10:00N 29°48' W 092°06'71 4.2
2017-Oct-11 17:09N 29°32' W 090°46'1 4.2
2017-Oct-11 17:00N 29°33' W 090°45'  

Dump ship's entire track history